Time,TemperatureF,DewpointF,PressureIn,WindDirection,WindDirectionDegrees,WindSpeedMPH,WindSpeedGustMPH,Humidity,HourlyPrecipIn,Conditions,Clouds,dailyrainin,SoftwareType,DateUTC
2013-03-15 00:13:00,29.5,18.0,30.16,West,273,2.0,-999.0,62,-99.99,,,0.00,weatherlink.com 1.10,2013-03-15 04:13:00,
2013-03-15 00:28:00,29.7,20.0,30.15,South,173,2.0,-999.0,67,-99.99,,,0.00,weatherlink.com 1.10,2013-03-15 04:28:00,
2013-03-15 00:43:00,30.7,22.0,30.15,WNW,291,3.0,-999.0,70,-99.99,,,0.00,weatherlink.com 1.10,2013-03-15 04:43:00,
2013-03-15 00:59:00,30.7,23.0,30.14,WSW,249,9.0,-999.0,73,-99.99,,,0.00,weatherlink.com 1.10,2013-03-15 04:59:00,
2013-03-15 01:14:00,30.4,22.0,30.14,NW,306,4.0,-999.0,70,-99.99,,,0.00,weatherlink.com 1.10,2013-03-15 05:14:00,
2013-03-15 01:29:00,29.1,19.0,30.13,WNW,290,0.0,-999.0,65,-99.99,,,0.00,weatherlink.com 1.10,2013-03-15 05:29:00,
2013-03-15 01:44:00,29.8,23.0,30.14,NW,310,1.0,-999.0,75,-99.99,,,0.00,weatherlink.com 1.10,2013-03-15 05:44:00,
2013-03-15 01:59:00,30.1,24.0,30.11,WSW,246,3.0,-999.0,77,-99.99,,,0.00,weatherlink.com 1.10,2013-03-15 05:59:00,
2013-03-15 02:14:00,31.5,26.0,30.11,WSW,248,1.0,-999.0,80,-99.99,,,0.00,weatherlink.com 1.10,2013-03-15 06:14:00,
2013-03-15 02:29:00,31.9,27.0,30.11,SE,144,2.0,-999.0,82,-99.99,,,0.00,weatherlink.com 1.10,2013-03-15 06:29:00,
2013-03-15 02:44:00,31.9,27.0,30.11,ESE,119,1.0,-999.0,83,-99.99,,,0.00,weatherlink.com 1.10,2013-03-15 06:44:00,
2013-03-15 02:59:00,32.1,28.0,30.11,SW,232,6.0,-999.0,84,-99.99,,,0.00,weatherlink.com 1.10,2013-03-15 06:59:00,
2013-03-15 03:14:00,32.7,28.0,30.11,SW,214,10.0,-999.0,83,-99.99,,,0.00,weatherlink.com 1.10,2013-03-15 07:14:00,
2013-03-15 03:29:00,33.4,29.0,30.09,NW,319,0.0,-999.0,82,-99.99,,,0.00,weatherlink.com 1.10,2013-03-15 07:29:00,
2013-03-15 03:44:00,32.8,28.0,30.09,WNW,287,2.0,-999.0,83,-99.99,,,0.00,weatherlink.com 1.10,2013-03-15 07:44:00,
2013-03-15 03:59:00,32.8,29.0,30.09,West,277,9.0,-999.0,84,-99.99,,,0.00,weatherlink.com 1.10,2013-03-15 07:59:00,
2013-03-15 04:14:00,34.1,30.0,30.08,WNW,299,3.0,-999.0,85,-99.99,,,0.00,weatherlink.com 1.10,2013-03-15 08:14:00,
2013-03-15 04:29:00,34.0,30.0,30.09,WSW,239,2.0,-999.0,85,-99.99,,,0.00,weatherlink.com 1.10,2013-03-15 08:29:00,
2013-03-15 04:44:00,33.7,29.0,30.09,NNW,335,1.0,-999.0,83,-99.99,,,0.00,weatherlink.com 1.10,2013-03-15 08:44:00,
2013-03-15 04:59:00,33.5,28.0,30.08,WNW,302,1.0,-999.0,79,-99.99,,,0.00,weatherlink.com 1.10,2013-03-15 08:59:00,
2013-03-15 05:14:00,33.5,27.0,30.07,NNW,327,3.0,-999.0,76,-99.99,,,0.00,weatherlink.com 1.10,2013-03-15 09:14:00,
2013-03-15 05:29:00,33.1,27.0,30.08,SSW,212,5.0,-999.0,77,-99.99,,,0.00,weatherlink.com 1.10,2013-03-15 09:29:00,
2013-03-15 05:44:00,32.7,27.0,30.07,WNW,298,3.0,-999.0,79,-99.99,,,0.00,weatherlink.com 1.10,2013-03-15 09:44:00,
2013-03-15 05:59:00,32.8,27.0,30.08,NW,313,1.0,-999.0,78,-99.99,,,0.00,weatherlink.com 1.10,2013-03-15 09:59:00,
2013-03-15 06:14:00,32.7,27.0,30.10,WSW,247,2.0,-999.0,78,-99.99,,,0.00,weatherlink.com 1.10,2013-03-15 10:14:00,
2013-03-15 06:29:00,33.1,26.0,30.10,NW,304,2.0,-999.0,76,-99.99,,,0.00,weatherlink.com 1.10,2013-03-15 10:29:00,
2013-03-15 06:44:00,32.8,26.0,30.10,WNW,286,3.0,-999.0,76,-99.99,,,0.00,weatherlink.com 1.10,2013-03-15 10:44:00,
2013-03-15 06:59:00,32.8,26.0,30.10,West,273,3.0,-999.0,75,-99.99,,,0.00,weatherlink.com 1.10,2013-03-15 10:59:00,
2013-03-15 07:13:00,33.8,26.0,30.10,WNW,284,3.0,-999.0,73,-99.99,,,0.00,weatherlink.com 1.10,2013-03-15 11:13:00,
2013-03-15 07:28:00,34.3,26.0,30.11,WNW,284,0.0,-999.0,71,-99.99,,,0.00,weatherlink.com 1.10,2013-03-15 11:28:00,
2013-03-15 07:43:00,34.9,26.0,30.11,WNW,298,3.0,-999.0,71,-99.99,,,0.00,weatherlink.com 1.10,2013-03-15 11:43:00,
2013-03-15 07:58:00,35.5,27.0,30.10,WSW,254,2.0,-999.0,70,-99.99,,,0.00,weatherlink.com 1.10,2013-03-15 11:58:00,
2013-03-15 08:13:00,36.6,27.0,30.10,South,190,11.0,-999.0,68,-99.99,,,0.00,weatherlink.com 1.10,2013-03-15 12:13:00,
2013-03-15 08:28:00,37.2,27.0,30.10,SW,216,7.0,-999.0,68,-99.99,,,0.00,weatherlink.com 1.10,2013-03-15 12:28:00,
2013-03-15 08:43:00,38.2,28.0,30.10,WSW,237,7.0,-999.0,67,-99.99,,,0.00,weatherlink.com 1.10,2013-03-15 12:43:00,
2013-03-15 08:58:00,38.5,28.0,30.09,SW,225,9.0,-999.0,66,-99.99,,,0.00,weatherlink.com 1.10,2013-03-15 12:58:00,
2013-03-15 09:13:00,39.9,29.0,30.09,SW,219,8.0,-999.0,65,-99.99,,,0.00,weatherlink.com 1.10,2013-03-15 13:13:00,
2013-03-15 09:29:00,41.8,29.0,30.09,ESE,113,0.0,-999.0,62,-99.99,,,0.00,weatherlink.com 1.10,2013-03-15 13:29:00,
2013-03-15 09:44:00,43.6,30.0,30.07,South,177,3.0,-999.0,60,-99.99,,,0.00,weatherlink.com 1.10,2013-03-15 13:44:00,
2013-03-15 09:59:00,44.2,31.0,30.06,SSW,207,5.0,-999.0,60,-99.99,,,0.00,weatherlink.com 1.10,2013-03-15 13:59:00,
2013-03-15 10:14:00,44.2,31.0,30.06,SW,217,5.0,-999.0,61,-99.99,,,0.00,weatherlink.com 1.10,2013-03-15 14:14:00,
2013-03-15 10:29:00,43.8,31.0,30.06,WSW,245,6.0,-999.0,61,-99.99,,,0.00,weatherlink.com 1.10,2013-03-15 14:29:00,
2013-03-15 10:44:00,43.6,30.0,30.07,SW,229,9.0,-999.0,59,-99.99,,,0.00,weatherlink.com 1.10,2013-03-15 14:44:00,
2013-03-15 10:59:00,43.8,31.0,30.06,SW,228,5.0,-999.0,60,-99.99,,,0.00,weatherlink.com 1.10,2013-03-15 14:59:00,
2013-03-15 11:14:00,44.2,30.0,30.07,SW,229,9.0,-999.0,58,-99.99,,,0.00,weatherlink.com 1.10,2013-03-15 15:14:00,
2013-03-15 11:29:00,44.1,30.0,30.06,SW,221,5.0,-999.0,59,-99.99,,,0.00,weatherlink.com 1.10,2013-03-15 15:29:00,
2013-03-15 11:44:00,44.3,30.0,30.06,SSW,211,3.0,-999.0,57,-99.99,,,0.00,weatherlink.com 1.10,2013-03-15 15:44:00,
2013-03-15 11:59:00,46.0,31.0,30.05,WSW,241,9.0,-999.0,57,-99.99,,,0.00,weatherlink.com 1.10,2013-03-15 15:59:00,
2013-03-15 12:14:00,46.4,31.0,30.04,SSW,202,6.0,-999.0,56,-99.99,,,0.00,weatherlink.com 1.10,2013-03-15 16:14:00,
2013-03-15 12:29:00,46.8,31.0,30.03,WSW,238,4.0,-999.0,55,-99.99,,,0.00,weatherlink.com 1.10,2013-03-15 16:29:00,
2013-03-15 12:44:00,47.9,32.0,30.02,South,190,5.0,-999.0,54,-99.99,,,0.00,weatherlink.com 1.10,2013-03-15 16:44:00,
2013-03-15 12:59:00,49.4,31.0,30.01,SW,221,12.0,-999.0,50,-99.99,,,0.00,weatherlink.com 1.10,2013-03-15 16:59:00,
2013-03-15 13:29:00,51.0,31.0,29.99,SW,229,13.0,-999.0,47,-99.99,,,0.00,weatherlink.com 1.10,2013-03-15 17:29:00,
2013-03-15 13:44:00,51.3,32.0,29.98,ESE,114,10.0,-999.0,48,-99.99,,,0.00,weatherlink.com 1.10,2013-03-15 17:44:00,
2013-03-15 13:59:00,52.0,31.0,29.98,SSW,201,5.0,-999.0,45,-99.99,,,0.00,weatherlink.com 1.10,2013-03-15 17:59:00,
2013-03-15 14:14:00,52.2,31.0,29.96,WSW,242,7.0,-999.0,44,-99.99,,,0.00,weatherlink.com 1.10,2013-03-15 18:14:00,
2013-03-15 14:29:00,52.5,32.0,29.96,SW,227,13.0,-999.0,45,-99.99,,,0.00,weatherlink.com 1.10,2013-03-15 18:29:00,
2013-03-15 14:44:00,53.3,32.0,29.95,WNW,300,6.0,-999.0,44,-99.99,,,0.00,weatherlink.com 1.10,2013-03-15 18:44:00,
2013-03-15 14:59:00,54.4,32.0,29.93,West,275,11.0,-999.0,43,-99.99,,,0.00,weatherlink.com 1.10,2013-03-15 18:59:00,
2013-03-15 15:14:00,54.2,33.0,29.92,West,267,6.0,-999.0,44,-99.99,,,0.00,weatherlink.com 1.10,2013-03-15 19:14:00,
2013-03-15 15:29:00,54.5,31.0,29.91,SW,215,15.0,-999.0,41,-99.99,,,0.00,weatherlink.com 1.10,2013-03-15 19:29:00,
2013-03-15 15:44:00,56.3,31.0,29.91,West,263,9.0,-999.0,38,-99.99,,,0.00,weatherlink.com 1.10,2013-03-15 19:44:00,
2013-03-15 15:59:00,56.6,27.0,29.89,NNE,31,3.0,-999.0,32,-99.99,,,0.00,weatherlink.com 1.10,2013-03-15 19:59:00,
2013-03-15 16:14:00,56.9,26.0,29.89,WSW,250,6.0,-999.0,30,-99.99,,,0.00,weatherlink.com 1.10,2013-03-15 20:14:00,
2013-03-15 16:29:00,55.1,27.0,29.90,NE,40,2.0,-999.0,34,-99.99,,,0.00,weatherlink.com 1.10,2013-03-15 20:29:00,
2013-03-15 16:44:00,55.7,28.0,29.88,WSW,242,4.0,-999.0,35,-99.99,,,0.00,weatherlink.com 1.10,2013-03-15 20:44:00,
2013-03-15 17:14:00,56.0,29.0,29.89,WSW,238,4.0,-999.0,36,-99.99,,,0.00,weatherlink.com 1.10,2013-03-15 21:14:00,
2013-03-15 17:29:00,55.6,30.0,29.89,WSW,244,6.0,-999.0,38,-99.99,,,0.00,weatherlink.com 1.10,2013-03-15 21:29:00,
2013-03-15 17:45:00,55.4,32.0,29.89,NNE,15,2.0,-999.0,41,-99.99,,,0.00,weatherlink.com 1.10,2013-03-15 21:45:00,
2013-03-15 17:59:00,54.4,32.0,29.90,South,187,7.0,-999.0,43,-99.99,,,0.00,weatherlink.com 1.10,2013-03-15 21:59:00,
2013-03-15 18:14:00,53.5,33.0,29.89,WNW,294,5.0,-999.0,46,-99.99,,,0.00,weatherlink.com 1.10,2013-03-15 22:14:00,
2013-03-15 18:29:00,53.1,34.0,29.90,WSW,244,9.0,-999.0,49,-99.99,,,0.00,weatherlink.com 1.10,2013-03-15 22:29:00,
2013-03-15 18:44:00,52.8,35.0,29.90,SSW,203,8.0,-999.0,51,-99.99,,,0.00,weatherlink.com 1.10,2013-03-15 22:44:00,
2013-03-15 18:59:00,52.3,35.0,29.91,South,178,4.0,-999.0,53,-99.99,,,0.00,weatherlink.com 1.10,2013-03-15 22:59:00,
2013-03-15 19:14:00,51.9,36.0,29.89,WSW,238,14.0,-999.0,56,-99.99,,,0.00,weatherlink.com 1.10,2013-03-15 23:14:00,
2013-03-15 19:29:00,51.4,36.0,29.90,WSW,238,9.0,-999.0,57,-99.99,,,0.00,weatherlink.com 1.10,2013-03-15 23:29:00,
2013-03-15 19:45:00,51.0,36.0,29.90,West,261,7.0,-999.0,58,-99.99,,,0.00,weatherlink.com 1.10,2013-03-15 23:45:00,
2013-03-15 19:59:00,50.7,37.0,29.90,South,186,11.0,-999.0,59,-99.99,,,0.00,weatherlink.com 1.10,2013-03-15 23:59:00,
2013-03-15 20:15:00,50.5,36.0,29.88,WSW,249,7.0,-999.0,59,-99.99,,,0.00,weatherlink.com 1.10,2013-03-16 00:15:00,
2013-03-15 20:29:00,50.4,37.0,29.89,SSE,150,3.0,-999.0,61,-99.99,,,0.00,weatherlink.com 1.10,2013-03-16 00:29:00,
2013-03-15 20:45:00,50.2,37.0,29.89,WNW,300,11.0,-999.0,62,-99.99,,,0.00,weatherlink.com 1.10,2013-03-16 00:45:00,
2013-03-15 21:00:00,50.1,38.0,29.88,West,266,7.0,-999.0,63,-99.99,,,0.00,weatherlink.com 1.10,2013-03-16 01:00:00,
2013-03-15 21:15:00,50.4,38.0,29.86,SW,236,5.0,-999.0,63,-99.99,,,0.00,weatherlink.com 1.10,2013-03-16 01:15:00,
2013-03-15 21:30:00,50.5,38.0,29.86,WSW,246,4.0,-999.0,63,-99.99,,,0.00,weatherlink.com 1.10,2013-03-16 01:30:00,
2013-03-15 21:45:00,50.4,38.0,29.86,East,90,2.0,-999.0,63,-99.99,,,0.00,weatherlink.com 1.10,2013-03-16 01:45:00,
2013-03-15 22:00:00,50.2,38.0,29.86,WSW,255,13.0,-999.0,63,-99.99,,,0.00,weatherlink.com 1.10,2013-03-16 02:00:00,
2013-03-15 22:15:00,49.9,38.0,29.85,WSW,254,9.0,-999.0,64,-99.99,,,0.00,weatherlink.com 1.10,2013-03-16 02:15:00,
2013-03-15 22:30:00,49.8,38.0,29.85,WNW,294,3.0,-999.0,64,-99.99,,,0.00,weatherlink.com 1.10,2013-03-16 02:30:00,
2013-03-15 22:45:00,49.8,38.0,29.85,West,274,7.0,-999.0,64,-99.99,,,0.00,weatherlink.com 1.10,2013-03-16 02:45:00,
2013-03-15 23:00:00,49.5,38.0,29.85,SW,234,7.0,-999.0,65,-99.99,,,0.00,weatherlink.com 1.10,2013-03-16 03:00:00,
2013-03-15 23:15:00,49.5,38.0,29.83,SW,227,10.0,-999.0,65,-99.99,,,0.00,weatherlink.com 1.10,2013-03-16 03:15:00,
2013-03-15 23:30:00,49.5,38.0,29.84,NW,317,2.0,-999.0,66,-99.99,,,0.00,weatherlink.com 1.10,2013-03-16 03:30:00,
2013-03-15 23:45:00,49.5,39.0,29.84,West,277,11.0,-999.0,67,-99.99,,,0.00,weatherlink.com 1.10,2013-03-16 03:45:00,